Lawrence, Kansas
Current Conditions -  °F | °C
As of 2:52 AM on Monday 20 Oct 2014 (Local Time) from KLWC Reporting Station
Clear Clear  
Wind Chill: 50°   Ceiling: Unl
Heat Index: 50°   Visibility: 9mi
Dew Point: 48°   Wind: 0mph
Humidity: 93%   Direction: NA
Pressure: 30.02"   Gusts: NA
Location:  38.97°N, 95.24°W
Report Text: KLWC 200752Z AUTO 00000KT 9SM CLR 10/09 A3002 RMK AO2 SLP162 T01000089
Loading
Personal Weather Stations






























Interactive Weather Map New forecast layout! Learn more

10-Day Weather Forecast

Advertisements
Track Severe Weather on mobile